createdAt,value
2023-05-22T00:01:17.676Z,41.51
2023-05-22T00:03:44.265Z,43.71
2023-05-22T00:06:10.831Z,44.24
2023-05-22T00:08:37.430Z,43.30
2023-05-22T00:11:04.030Z,43.04
2023-05-22T00:13:30.548Z,42.50
2023-05-22T00:15:57.070Z,42.53
2023-05-22T00:18:23.600Z,45.13
2023-05-22T00:20:50.168Z,41.08
2023-05-22T00:23:17.776Z,42.70
2023-05-22T00:25:44.318Z,42.51
2023-05-22T00:28:10.825Z,41.88
2023-05-22T00:30:37.399Z,41.23
2023-05-22T00:33:04.153Z,41.14
2023-05-22T00:35:30.751Z,41.46
2023-05-22T00:37:57.314Z,40.45
2023-05-22T00:40:23.791Z,42.32
2023-05-22T00:42:50.260Z,41.78
2023-05-22T00:45:16.725Z,41.67
2023-05-22T00:47:43.333Z,39.86
2023-05-22T00:50:09.827Z,40.68
2023-05-22T00:52:36.474Z,40.65
2023-05-22T00:55:02.991Z,40.68
2023-05-22T00:57:29.520Z,41.81
2023-05-22T00:59:56.053Z,38.55
2023-05-22T01:02:22.581Z,41.05
2023-05-22T01:04:49.119Z,39.59
2023-05-22T01:07:15.677Z,43.34
2023-05-22T01:09:42.277Z,38.34
2023-05-22T01:12:08.792Z,39.00
2023-05-22T01:14:35.425Z,38.61
2023-05-22T01:17:01.992Z,39.21
2023-05-22T01:19:28.601Z,40.28
2023-05-22T01:21:55.178Z,36.75
2023-05-22T01:24:21.861Z,37.99
2023-05-22T01:26:48.418Z,37.45
2023-05-22T01:29:15.139Z,39.17
2023-05-22T01:31:41.596Z,39.24
2023-05-22T01:34:08.153Z,38.44
2023-05-22T01:36:34.730Z,38.61
2023-05-22T01:39:01.306Z,38.52
2023-05-22T01:41:30.643Z,37.08
2023-05-22T01:43:57.156Z,36.56
2023-05-22T01:46:23.730Z,37.92
2023-05-22T01:48:50.339Z,36.28
2023-05-22T01:51:16.951Z,36.19
2023-05-22T01:53:43.457Z,36.08
2023-05-22T01:56:10.001Z,36.50
2023-05-22T01:58:36.549Z,35.59
2023-05-22T02:01:03.157Z,37.31
2023-05-22T02:03:29.866Z,36.40
2023-05-22T02:05:56.427Z,37.89
2023-05-22T02:08:23.032Z,35.21
2023-05-22T02:10:49.549Z,36.96
2023-05-22T02:13:16.032Z,35.50
2023-05-22T02:15:42.686Z,35.99
2023-05-22T02:18:09.381Z,37.05
2023-05-22T02:20:35.954Z,35.45
2023-05-22T02:23:02.487Z,34.94
2023-05-22T02:25:29.100Z,34.36
2023-05-22T02:27:55.588Z,34.17
2023-05-22T02:30:22.128Z,34.07
2023-05-22T02:32:48.657Z,34.48
2023-05-22T02:35:15.287Z,35.59
2023-05-22T02:37:41.892Z,32.77
2023-05-22T02:40:08.492Z,33.43
2023-05-22T02:42:35.027Z,34.68
2023-05-22T02:45:01.549Z,34.61
2023-05-22T02:47:28.100Z,33.75
2023-05-22T02:49:54.895Z,33.19
2023-05-22T02:52:21.466Z,32.87
2023-05-22T02:54:48.065Z,35.18
2023-05-22T02:57:14.610Z,34.44
2023-05-22T02:59:41.148Z,32.32
2023-05-22T03:02:07.938Z,31.29
2023-05-22T03:04:34.647Z,33.30
2023-05-22T03:07:01.189Z,32.65
2023-05-22T03:09:27.693Z,33.30
2023-05-22T03:11:54.249Z,32.13
2023-05-22T03:14:20.761Z,32.84
2023-05-22T03:16:47.487Z,32.71
2023-05-22T03:19:14.199Z,34.19
2023-05-22T03:21:40.776Z,33.17
2023-05-22T03:24:07.403Z,33.45
2023-05-22T03:26:33.962Z,31.87
2023-05-22T03:29:00.513Z,32.86
2023-05-22T03:31:27.076Z,32.16
2023-05-22T03:33:53.663Z,31.57
2023-05-22T03:36:20.276Z,30.90
2023-05-22T03:38:46.809Z,31.95
2023-05-22T03:41:13.366Z,30.93
2023-05-22T03:43:41.131Z,31.99
2023-05-22T03:46:09.259Z,31.80
2023-05-22T03:48:35.833Z,29.18
2023-05-22T03:51:02.425Z,29.68
2023-05-22T03:53:28.902Z,30.51
2023-05-22T03:55:55.463Z,31.19
2023-05-22T03:58:22.021Z,31.85
2023-05-22T04:00:48.592Z,30.45
2023-05-22T04:03:15.330Z,31.59
2023-05-22T04:05:42.074Z,30.93
2023-05-22T04:08:08.671Z,31.87
2023-05-22T04:10:35.283Z,30.88
2023-05-22T04:13:01.818Z,30.39
2023-05-22T04:15:28.307Z,32.91
2023-05-22T04:17:54.963Z,30.93
2023-05-22T04:20:21.634Z,30.14
2023-05-22T04:22:48.161Z,30.63
2023-05-22T04:25:14.736Z,30.73
2023-05-22T04:27:41.389Z,30.17
2023-05-22T04:30:07.861Z,30.56
2023-05-22T04:32:34.313Z,30.87
2023-05-22T04:35:00.971Z,30.07
2023-05-22T04:37:27.481Z,30.23
2023-05-22T04:39:56.755Z,29.10
2023-05-22T04:42:23.355Z,28.04
2023-05-22T04:44:49.900Z,29.90
2023-05-22T04:47:16.428Z,30.81
2023-05-22T04:49:42.955Z,29.10
2023-05-22T04:52:09.538Z,30.03
2023-05-22T04:54:36.134Z,32.53
2023-05-22T04:57:02.659Z,33.34
2023-05-22T04:59:29.129Z,32.09
2023-05-22T05:01:55.635Z,33.09
2023-05-22T05:04:22.241Z,31.80
2023-05-22T05:06:48.698Z,32.48
2023-05-22T05:09:15.329Z,33.03
2023-05-22T05:11:41.888Z,33.63
2023-05-22T05:14:08.370Z,33.18
2023-05-22T05:16:34.917Z,35.00
2023-05-22T05:19:01.548Z,35.09
2023-05-22T05:21:28.278Z,33.64
2023-05-22T05:23:54.866Z,33.74
2023-05-22T05:26:21.422Z,34.77
2023-05-22T05:28:47.939Z,34.58
2023-05-22T05:31:14.483Z,34.64
2023-05-22T05:33:41.176Z,34.21
2023-05-22T05:36:07.924Z,33.90
2023-05-22T05:38:34.514Z,34.21
2023-05-22T05:41:01.075Z,30.41
2023-05-22T05:43:27.705Z,34.07
2023-05-22T05:45:54.340Z,31.96
2023-05-22T05:48:20.919Z,36.15
2023-05-22T05:50:47.448Z,35.97
2023-05-22T05:53:13.962Z,35.80
2023-05-22T05:55:40.487Z,36.09
2023-05-22T05:58:07.067Z,34.77
2023-05-22T06:00:33.681Z,37.47
2023-05-22T06:03:00.298Z,36.87
2023-05-22T06:05:27.067Z,35.77
2023-05-22T06:07:53.720Z,34.12
2023-05-22T06:10:20.232Z,36.28
2023-05-22T06:12:46.754Z,36.52
2023-05-22T06:15:13.309Z,35.91
2023-05-22T06:17:39.964Z,36.82
2023-05-22T06:20:06.661Z,37.43
2023-05-22T06:22:33.208Z,36.08
2023-05-22T06:24:59.791Z,35.82
2023-05-22T06:27:26.238Z,36.32
2023-05-22T06:29:52.767Z,36.80
2023-05-22T06:32:19.378Z,35.06
2023-05-22T06:34:45.847Z,36.61
2023-05-22T06:37:12.400Z,34.36
2023-05-22T06:39:38.879Z,35.56
2023-05-22T06:42:05.432Z,36.25
2023-05-22T06:44:32.012Z,33.90
2023-05-22T06:46:58.686Z,35.12
2023-05-22T06:49:25.384Z,34.17
2023-05-22T06:51:51.953Z,35.40
2023-05-22T06:54:18.479Z,33.08
2023-05-22T06:56:45.049Z,35.25
2023-05-22T06:59:11.654Z,34.44
2023-05-22T07:01:38.233Z,32.75
2023-05-22T07:04:04.837Z,36.96
2023-05-22T07:06:31.350Z,39.54
2023-05-22T07:08:57.922Z,37.91
2023-05-22T07:11:24.425Z,37.81
2023-05-22T07:13:50.965Z,38.81
2023-05-22T07:16:17.522Z,37.77
2023-05-22T07:18:44.152Z,37.33
2023-05-22T07:21:10.696Z,38.48
2023-05-22T07:23:37.293Z,39.24
2023-05-22T07:26:03.886Z,40.06
2023-05-22T07:28:30.467Z,41.11
2023-05-22T07:30:57.028Z,40.38
2023-05-22T07:33:23.627Z,39.41
2023-05-22T07:35:50.134Z,39.40
2023-05-22T07:38:16.671Z,39.61
2023-05-22T07:40:43.205Z,38.16
2023-05-22T07:43:09.774Z,40.82
2023-05-22T07:45:36.309Z,39.94
2023-05-22T07:48:02.791Z,36.90
2023-05-22T07:50:29.397Z,40.19
2023-05-22T07:52:56.052Z,39.87
2023-05-22T07:55:22.654Z,39.57
2023-05-22T07:57:49.296Z,37.89
2023-05-22T08:00:15.917Z,39.58
2023-05-22T08:02:42.523Z,39.11
2023-05-22T08:05:09.360Z,42.10
2023-05-22T08:07:36.041Z,38.77
2023-05-22T08:10:02.595Z,39.98
2023-05-22T08:12:29.203Z,38.03
2023-05-22T08:14:55.753Z,39.09
2023-05-22T08:17:22.468Z,38.08
2023-05-22T08:19:49.209Z,38.86
2023-05-22T08:22:15.809Z,39.08
2023-05-22T08:24:42.344Z,37.73
2023-05-22T08:27:08.945Z,37.07
2023-05-22T08:29:35.612Z,38.31
2023-05-22T08:32:02.275Z,37.89
2023-05-22T08:34:28.922Z,38.49
2023-05-22T08:36:55.472Z,37.29
2023-05-22T08:39:22.013Z,36.46
2023-05-22T08:41:48.596Z,40.41
2023-05-22T08:44:15.175Z,38.95
2023-05-22T08:46:41.742Z,37.35
2023-05-22T08:49:08.443Z,37.61
2023-05-22T08:51:35.056Z,38.18
2023-05-22T08:54:01.582Z,38.12
2023-05-22T08:56:29.473Z,38.81
2023-05-22T08:58:56.297Z,37.79
2023-05-22T09:01:22.975Z,38.52
2023-05-22T09:03:49.505Z,40.16
2023-05-22T09:06:15.996Z,37.94
2023-05-22T09:08:42.534Z,38.07
2023-05-22T09:11:09.036Z,38.50
2023-05-22T09:13:35.571Z,37.45
2023-05-22T09:16:02.134Z,38.05
2023-05-22T09:18:28.684Z,38.94
2023-05-22T09:20:55.189Z,39.73
2023-05-22T09:23:21.656Z,36.51
2023-05-22T09:25:48.125Z,37.11
2023-05-22T09:28:14.658Z,39.15
2023-05-22T09:30:41.330Z,39.02
2023-05-22T09:33:11.134Z,35.64
2023-05-22T09:35:37.646Z,37.01
2023-05-22T09:38:04.186Z,38.00
2023-05-22T09:40:30.678Z,39.98
2023-05-22T09:42:57.208Z,38.75
2023-05-22T09:45:23.707Z,37.41
2023-05-22T09:47:50.291Z,37.49
2023-05-22T09:50:16.799Z,35.39
2023-05-22T09:52:43.291Z,36.89
2023-05-22T09:55:09.771Z,38.70
2023-05-22T09:57:36.307Z,39.15
2023-05-22T10:00:02.840Z,39.31
2023-05-22T10:02:29.513Z,39.01
2023-05-22T10:04:56.189Z,39.25
2023-05-22T10:07:22.761Z,37.98
2023-05-22T10:09:49.311Z,38.71
2023-05-22T10:12:15.976Z,37.70
2023-05-22T10:14:42.570Z,37.11
2023-05-22T10:17:11.512Z,38.85
2023-05-22T10:19:40.466Z,39.27
2023-05-22T10:22:08.338Z,39.03
2023-05-22T10:24:34.951Z,39.12
2023-05-22T10:27:01.734Z,38.51
2023-05-22T10:29:31.439Z,37.37
2023-05-22T10:31:57.967Z,39.47
2023-05-22T10:34:24.507Z,36.68
2023-05-22T10:36:51.088Z,37.80
2023-05-22T10:39:17.562Z,36.86
2023-05-22T10:41:44.122Z,37.29
2023-05-22T10:44:10.650Z,35.34
2023-05-22T10:46:37.291Z,38.22
2023-05-22T10:49:03.840Z,37.98
2023-05-22T10:51:30.654Z,35.02
2023-05-22T10:53:57.256Z,35.33
2023-05-22T10:56:25.442Z,38.12
2023-05-22T10:58:52.443Z,37.21
2023-05-22T11:01:19.015Z,39.89
2023-05-22T11:03:45.663Z,37.38
2023-05-22T11:06:12.319Z,37.72
2023-05-22T11:08:38.919Z,37.42
2023-05-22T11:11:05.447Z,37.36
2023-05-22T11:13:32.022Z,38.16
2023-05-22T11:15:58.634Z,37.88
2023-05-22T11:18:25.248Z,38.91
2023-05-22T11:20:51.792Z,37.00
2023-05-22T11:23:18.386Z,37.33
2023-05-22T11:25:44.967Z,39.58
2023-05-22T11:28:11.582Z,38.47
2023-05-22T11:30:38.774Z,36.51
2023-05-22T11:33:05.520Z,35.15
2023-05-22T11:35:32.147Z,36.77
2023-05-22T11:37:58.800Z,37.63
2023-05-22T11:40:25.382Z,36.90
2023-05-22T11:42:51.902Z,37.04
2023-05-22T11:45:18.444Z,37.79
2023-05-22T11:47:45.075Z,37.72
2023-05-22T11:50:11.670Z,36.42
2023-05-22T11:52:38.281Z,35.83
2023-05-22T11:55:04.850Z,38.09
2023-05-22T11:57:31.392Z,42.66
2023-05-22T11:59:57.974Z,42.04
2023-05-22T12:02:24.601Z,41.67
2023-05-22T12:04:51.181Z,40.33
2023-05-22T12:07:17.801Z,40.61
2023-05-22T12:09:44.381Z,39.82
2023-05-22T12:12:10.956Z,40.19
2023-05-22T12:14:37.541Z,40.70
2023-05-22T12:17:04.135Z,39.67
2023-05-22T12:19:30.794Z,39.16
2023-05-22T12:21:57.495Z,41.17
2023-05-22T12:24:24.118Z,39.77
2023-05-22T12:26:50.635Z,41.64
2023-05-22T12:29:17.205Z,41.03
2023-05-22T12:31:43.737Z,41.03
2023-05-22T12:34:10.472Z,40.02
2023-05-22T12:36:37.040Z,40.73
2023-05-22T12:39:03.645Z,41.90
2023-05-22T12:41:30.221Z,39.54
2023-05-22T12:43:56.862Z,41.30
2023-05-22T12:46:23.485Z,39.28
2023-05-22T12:48:50.116Z,41.95
2023-05-22T12:51:18.653Z,40.28
2023-05-22T12:53:46.536Z,39.34
2023-05-22T12:56:13.124Z,38.75
2023-05-22T12:58:39.726Z,40.50
2023-05-22T13:01:06.383Z,40.80
2023-05-22T13:03:32.963Z,41.59
2023-05-22T13:05:59.541Z,40.07
2023-05-22T13:08:26.078Z,41.12
2023-05-22T13:10:52.542Z,47.05
2023-05-22T13:13:19.133Z,57.93
2023-05-22T13:15:45.805Z,52.60
2023-05-22T13:18:12.425Z,49.55
2023-05-22T13:20:39.082Z,48.09
2023-05-22T13:23:05.642Z,49.07
2023-05-22T13:25:32.204Z,48.13
2023-05-22T13:27:58.771Z,46.61
2023-05-22T13:30:25.414Z,44.71
2023-05-22T13:32:51.980Z,43.60
2023-05-22T13:35:18.567Z,45.80
2023-05-22T13:37:45.240Z,49.66
2023-05-22T13:40:11.840Z,50.32
2023-05-22T13:42:38.514Z,51.04
2023-05-22T13:45:05.077Z,50.58
2023-05-22T13:47:31.721Z,51.31
2023-05-22T13:49:58.436Z,47.58
2023-05-22T13:52:25.030Z,51.04
2023-05-22T13:54:51.655Z,47.06
2023-05-22T13:57:18.171Z,46.21
2023-05-22T13:59:44.764Z,45.54
2023-05-22T14:02:11.384Z,47.37
2023-05-22T14:04:38.043Z,47.87
2023-05-22T14:07:04.592Z,48.80
2023-05-22T14:09:31.108Z,46.42
2023-05-22T14:11:57.663Z,75.56
2023-05-22T14:14:24.695Z,62.72
2023-05-22T14:16:51.449Z,64.57
2023-05-22T14:19:18.141Z,62.18
2023-05-22T14:21:44.682Z,62.98
2023-05-22T14:24:11.230Z,60.48
2023-05-22T14:26:37.855Z,60.68
2023-05-22T14:29:04.592Z,59.39
2023-05-22T14:31:31.305Z,57.93
2023-05-22T14:33:57.885Z,56.54
2023-05-22T14:36:24.434Z,59.22
2023-05-22T14:38:51.033Z,56.95
2023-05-22T14:41:17.627Z,57.93
2023-05-22T14:43:44.189Z,56.14
2023-05-22T14:46:10.867Z,56.02
2023-05-22T14:48:37.461Z,54.49
2023-05-22T14:51:04.097Z,52.65
2023-05-22T14:53:30.733Z,53.81
2023-05-22T14:55:57.338Z,52.86
2023-05-22T14:58:23.937Z,54.21
2023-05-22T15:00:50.527Z,79.93
2023-05-22T15:03:17.195Z,89.14
2023-05-22T15:05:43.752Z,89.94
2023-05-22T15:08:10.362Z,87.54
2023-05-22T15:10:36.861Z,83.88
2023-05-22T15:13:03.401Z,86.90
2023-05-22T15:15:29.930Z,79.83
2023-05-22T15:17:56.534Z,76.73
2023-05-22T15:20:23.052Z,79.64
2023-05-22T15:22:49.541Z,81.39
2023-05-22T15:25:16.167Z,79.45
2023-05-22T15:27:42.773Z,74.65
2023-05-22T15:30:09.384Z,74.38
2023-05-22T15:32:35.922Z,72.55
2023-05-22T15:35:02.496Z,74.84
2023-05-22T15:37:30.278Z,93.06
2023-05-22T15:39:58.672Z,92.80
2023-05-22T15:42:25.301Z,88.34
2023-05-22T15:44:51.880Z,89.27
2023-05-22T15:47:18.553Z,89.40
2023-05-22T15:49:45.117Z,84.00
2023-05-22T15:52:11.722Z,81.45
2023-05-22T15:54:38.223Z,82.69
2023-05-22T15:57:05.972Z,78.39
2023-05-22T15:59:34.614Z,78.28
2023-05-22T16:02:01.075Z,77.74
2023-05-22T16:04:27.631Z,74.12
2023-05-22T16:06:54.260Z,72.01
2023-05-22T16:09:20.824Z,73.87
2023-05-22T16:11:47.337Z,69.03
2023-05-22T16:14:13.989Z,70.12
2023-05-22T16:16:40.600Z,67.57
2023-05-22T16:19:07.301Z,67.31
2023-05-22T16:21:33.850Z,58.84
2023-05-22T16:24:00.461Z,55.12
2023-05-22T16:26:27.047Z,58.71
2023-05-22T16:28:53.565Z,57.94
2023-05-22T16:31:20.168Z,57.10
2023-05-22T16:33:46.791Z,64.56
2023-05-22T16:36:13.413Z,64.46
2023-05-22T16:38:40.032Z,61.98
2023-05-22T16:41:06.611Z,63.15
2023-05-22T16:43:33.150Z,62.76
2023-05-22T16:45:59.718Z,63.18
2023-05-22T16:48:29.096Z,62.11
2023-05-22T16:50:55.712Z,59.64
2023-05-22T16:53:22.326Z,58.50
2023-05-22T16:55:48.964Z,59.07
2023-05-22T16:58:15.565Z,58.59
2023-05-22T17:00:42.393Z,55.35
2023-05-22T17:03:09.803Z,55.08
2023-05-22T17:05:36.821Z,55.94
2023-05-22T17:08:03.417Z,52.60
2023-05-22T17:10:30.063Z,49.36
2023-05-22T17:12:56.703Z,48.29
2023-05-22T17:15:23.244Z,47.63
2023-05-22T17:17:49.933Z,48.96
2023-05-22T17:20:16.498Z,45.44
2023-05-22T17:22:43.083Z,48.94
2023-05-22T17:25:09.544Z,48.67
2023-05-22T17:27:36.998Z,48.36
2023-05-22T17:30:03.619Z,44.94
2023-05-22T17:32:30.260Z,46.35
2023-05-22T17:34:56.855Z,45.36
2023-05-22T17:37:23.328Z,44.99
2023-05-22T17:39:49.868Z,44.00
2023-05-22T17:42:16.361Z,43.52
2023-05-22T17:44:42.876Z,42.87
2023-05-22T17:47:09.423Z,43.63
2023-05-22T17:49:35.901Z,42.45
2023-05-22T17:52:02.372Z,44.19
2023-05-22T17:54:28.883Z,44.25
2023-05-22T17:56:55.369Z,45.08
2023-05-22T17:59:21.932Z,43.42
2023-05-22T18:01:48.514Z,45.99
2023-05-22T18:04:15.038Z,45.95
2023-05-22T18:06:41.556Z,48.01
2023-05-22T18:09:08.142Z,46.34
2023-05-22T18:11:34.621Z,46.24
2023-05-22T18:14:01.162Z,44.55
2023-05-22T18:16:27.758Z,48.17
2023-05-22T18:18:54.560Z,44.80
2023-05-22T18:21:21.170Z,50.62
2023-05-22T18:23:47.666Z,53.82
2023-05-22T18:26:14.159Z,67.83
2023-05-22T18:28:40.638Z,74.06
2023-05-22T18:31:07.168Z,73.80
2023-05-22T18:33:33.715Z,72.56
2023-05-22T18:36:00.207Z,69.56
2023-05-22T18:38:26.817Z,69.91
2023-05-22T18:40:53.336Z,67.56
2023-05-22T18:43:19.921Z,68.20
2023-05-22T18:45:46.466Z,68.51
2023-05-22T18:48:13.101Z,70.30
2023-05-22T18:50:39.978Z,67.93
2023-05-22T18:53:06.587Z,69.10
2023-05-22T18:55:33.128Z,68.96
2023-05-22T18:57:59.720Z,69.30
2023-05-22T19:00:26.362Z,69.02
2023-05-22T19:02:52.933Z,68.53
2023-05-22T19:05:19.457Z,63.76
2023-05-22T19:07:45.951Z,64.02
2023-05-22T19:10:12.529Z,64.35
2023-05-22T19:12:39.108Z,66.55
2023-05-22T19:15:05.622Z,64.04
2023-05-22T19:17:32.180Z,65.49
2023-05-22T19:19:58.768Z,62.31
2023-05-22T19:22:25.292Z,63.76
2023-05-22T19:24:51.885Z,66.27
2023-05-22T19:27:18.460Z,64.69
2023-05-22T19:29:45.057Z,63.70
2023-05-22T19:32:11.608Z,65.31
2023-05-22T19:34:38.165Z,63.94
2023-05-22T19:37:04.861Z,60.62
2023-05-22T19:39:31.698Z,63.79
2023-05-22T19:41:58.322Z,62.08
2023-05-22T19:44:24.955Z,60.96
2023-05-22T19:46:51.706Z,60.80
2023-05-22T19:49:18.282Z,60.78
2023-05-22T19:51:44.904Z,58.87
2023-05-22T19:54:11.525Z,61.49
2023-05-22T19:56:38.027Z,60.05
2023-05-22T19:59:04.641Z,67.27
2023-05-22T20:01:31.207Z,65.17
2023-05-22T20:03:57.897Z,67.63
2023-05-22T20:06:24.471Z,70.32
2023-05-22T20:08:51.106Z,71.41
2023-05-22T20:11:17.702Z,68.32
2023-05-22T20:13:44.291Z,68.99
2023-05-22T20:16:10.913Z,69.30
2023-05-22T20:18:37.464Z,66.51
2023-05-22T20:21:05.745Z,68.61
2023-05-22T20:23:32.218Z,64.40
2023-05-22T20:25:58.728Z,63.56
2023-05-22T20:28:25.160Z,63.48
2023-05-22T20:30:51.693Z,62.97
2023-05-22T20:33:18.295Z,62.45
2023-05-22T20:35:44.947Z,60.44
2023-05-22T20:38:11.633Z,63.40
2023-05-22T20:40:38.148Z,62.88
2023-05-22T20:43:04.703Z,64.11
2023-05-22T20:45:31.259Z,67.20
2023-05-22T20:47:57.927Z,64.82
2023-05-22T20:50:24.556Z,64.06
2023-05-22T20:52:51.085Z,65.91
2023-05-22T20:55:17.700Z,65.73
2023-05-22T20:57:44.246Z,64.37
2023-05-22T21:00:10.797Z,63.24
2023-05-22T21:02:37.393Z,63.44
2023-05-22T21:05:04.064Z,62.32
2023-05-22T21:07:30.568Z,62.47
2023-05-22T21:09:57.211Z,61.46
2023-05-22T21:12:23.767Z,63.51
2023-05-22T21:14:50.509Z,59.20
2023-05-22T21:17:17.102Z,59.45
2023-05-22T21:19:43.760Z,59.67
2023-05-22T21:22:10.313Z,61.88
2023-05-22T21:24:36.871Z,61.17
2023-05-22T21:27:03.406Z,59.37
2023-05-22T21:29:29.942Z,58.80
2023-05-22T21:31:56.568Z,60.04
2023-05-22T21:34:23.188Z,58.68
2023-05-22T21:36:49.756Z,58.84
2023-05-22T21:39:16.261Z,59.88
2023-05-22T21:41:42.851Z,60.61
2023-05-22T21:44:09.518Z,60.95
2023-05-22T21:46:36.110Z,56.87
2023-05-22T21:49:02.704Z,55.65
2023-05-22T21:51:29.369Z,58.63
2023-05-22T21:53:55.846Z,56.23
2023-05-22T21:56:22.432Z,58.54
2023-05-22T21:58:48.965Z,57.79
2023-05-22T22:01:15.518Z,58.17
2023-05-22T22:03:42.234Z,56.45
2023-05-22T22:06:08.859Z,57.82
2023-05-22T22:08:35.557Z,57.86
2023-05-22T22:11:02.157Z,56.56
2023-05-22T22:13:28.676Z,57.68
2023-05-22T22:15:55.225Z,55.27
2023-05-22T22:18:21.759Z,56.30
2023-05-22T22:20:48.470Z,54.26
2023-05-22T22:23:15.207Z,53.51
2023-05-22T22:25:41.758Z,53.90
2023-05-22T22:28:08.218Z,55.15
2023-05-22T22:30:34.761Z,55.24
2023-05-22T22:33:01.448Z,53.46
2023-05-22T22:35:28.128Z,53.70
2023-05-22T22:37:54.724Z,56.41
2023-05-22T22:40:21.244Z,55.57
2023-05-22T22:42:47.784Z,54.26
2023-05-22T22:45:14.284Z,52.15
2023-05-22T22:47:40.847Z,55.38
2023-05-22T22:50:07.506Z,52.64
2023-05-22T22:52:34.126Z,53.57
2023-05-22T22:55:01.780Z,54.33
2023-05-22T22:57:28.470Z,52.59
2023-05-22T22:59:55.007Z,51.64
2023-05-22T23:02:21.640Z,52.30
2023-05-22T23:04:48.399Z,54.84
2023-05-22T23:07:14.995Z,53.26
2023-05-22T23:09:41.475Z,52.92
2023-05-22T23:12:07.980Z,54.00
2023-05-22T23:14:34.496Z,53.05
2023-05-22T23:17:01.064Z,52.78
2023-05-22T23:19:27.703Z,52.20
2023-05-22T23:21:54.297Z,51.73
2023-05-22T23:24:20.872Z,49.65
2023-05-22T23:26:50.214Z,52.21
2023-05-22T23:29:16.832Z,54.88
2023-05-22T23:31:43.518Z,52.16
2023-05-22T23:34:10.164Z,51.79
2023-05-22T23:36:36.696Z,51.27
2023-05-22T23:39:03.266Z,49.84
2023-05-22T23:41:29.867Z,50.99
2023-05-22T23:43:56.465Z,51.47
2023-05-22T23:46:23.049Z,50.51
2023-05-22T23:48:49.593Z,48.34
2023-05-22T23:51:16.110Z,52.61
2023-05-22T23:53:42.679Z,51.71
2023-05-22T23:56:09.211Z,53.42
2023-05-22T23:58:35.794Z,51.78
